sensor_id;sensor_type;location;lat;lon;timestamp;P1;durP1;ratioP1;P2;durP2;ratioP2
68886;SDS011;55925;51.764;6.402;2023-08-20T00:01:04;15.45;;;7.85;;
68886;SDS011;55925;51.764;6.402;2023-08-20T00:03:30;15.18;;;7.35;;
68886;SDS011;55925;51.764;6.402;2023-08-20T00:05:56;16.30;;;7.13;;
68886;SDS011;55925;51.764;6.402;2023-08-20T00:08:22;13.85;;;6.78;;
68886;SDS011;55925;51.764;6.402;2023-08-20T00:10:48;17.00;;;7.45;;
68886;SDS011;55925;51.764;6.402;2023-08-20T00:13:14;13.25;;;7.72;;
68886;SDS011;55925;51.764;6.402;2023-08-20T00:15:40;12.80;;;6.82;;
68886;SDS011;55925;51.764;6.402;2023-08-20T00:18:07;14.65;;;7.38;;
68886;SDS011;55925;51.764;6.402;2023-08-20T00:20:33;12.77;;;7.50;;
68886;SDS011;55925;51.764;6.402;2023-08-20T00:22:59;17.58;;;8.60;;
68886;SDS011;55925;51.764;6.402;2023-08-20T00:25:25;13.20;;;7.05;;
68886;SDS011;55925;51.764;6.402;2023-08-20T00:27:51;17.05;;;7.72;;
68886;SDS011;55925;51.764;6.402;2023-08-20T00:30:17;14.85;;;6.72;;
68886;SDS011;55925;51.764;6.402;2023-08-20T00:32:43;13.77;;;6.75;;
68886;SDS011;55925;51.764;6.402;2023-08-20T00:35:09;15.23;;;7.05;;
68886;SDS011;55925;51.764;6.402;2023-08-20T00:37:35;14.82;;;7.78;;
68886;SDS011;55925;51.764;6.402;2023-08-20T00:40:02;17.10;;;7.43;;
68886;SDS011;55925;51.764;6.402;2023-08-20T00:42:31;17.73;;;7.25;;
68886;SDS011;55925;51.764;6.402;2023-08-20T00:44:57;14.35;;;7.70;;
68886;SDS011;55925;51.764;6.402;2023-08-20T00:47:23;15.35;;;7.57;;
68886;SDS011;55925;51.764;6.402;2023-08-20T00:49:49;15.63;;;7.57;;
68886;SDS011;55925;51.764;6.402;2023-08-20T00:52:16;13.68;;;7.30;;
68886;SDS011;55925;51.764;6.402;2023-08-20T00:54:44;16.90;;;7.75;;
68886;SDS011;55925;51.764;6.402;2023-08-20T00:57:11;18.73;;;9.13;;
68886;SDS011;55925;51.764;6.402;2023-08-20T00:59:39;19.88;;;9.07;;
68886;SDS011;55925;51.764;6.402;2023-08-20T01:02:06;16.20;;;8.63;;
68886;SDS011;55925;51.764;6.402;2023-08-20T01:04:32;14.93;;;7.32;;
68886;SDS011;55925;51.764;6.402;2023-08-20T01:12:00;19.85;;;8.65;;
68886;SDS011;55925;51.764;6.402;2023-08-20T01:14:28;18.88;;;9.55;;
68886;SDS011;55925;51.764;6.402;2023-08-20T01:16:54;16.83;;;8.63;;
68886;SDS011;55925;51.764;6.402;2023-08-20T01:19:21;16.73;;;8.57;;
68886;SDS011;55925;51.764;6.402;2023-08-20T01:29:55;20.27;;;8.85;;
68886;SDS011;55925;51.764;6.402;2023-08-20T01:32:22;16.73;;;9.20;;
68886;SDS011;55925;51.764;6.402;2023-08-20T01:34:48;15.43;;;8.18;;
68886;SDS011;55925;51.764;6.402;2023-08-20T01:37:14;15.38;;;8.40;;
68886;SDS011;55925;51.764;6.402;2023-08-20T01:39:41;18.08;;;9.80;;
68886;SDS011;55925;51.764;6.402;2023-08-20T01:42:07;14.38;;;8.52;;
68886;SDS011;55925;51.764;6.402;2023-08-20T01:44:33;17.35;;;8.85;;
68886;SDS011;55925;51.764;6.402;2023-08-20T01:46:59;19.25;;;9.13;;
68886;SDS011;55925;51.764;6.402;2023-08-20T01:49:25;16.00;;;8.80;;
68886;SDS011;55925;51.764;6.402;2023-08-20T01:51:51;16.67;;;8.27;;
68886;SDS011;55925;51.764;6.402;2023-08-20T01:54:17;18.80;;;8.52;;
68886;SDS011;55925;51.764;6.402;2023-08-20T01:56:43;16.08;;;7.93;;
68886;SDS011;55925;51.764;6.402;2023-08-20T01:59:09;16.55;;;8.20;;
68886;SDS011;55925;51.764;6.402;2023-08-20T02:01:35;16.65;;;7.93;;
68886;SDS011;55925;51.764;6.402;2023-08-20T02:04:01;17.10;;;7.88;;
68886;SDS011;55925;51.764;6.402;2023-08-20T02:06:27;17.30;;;8.70;;
68886;SDS011;55925;51.764;6.402;2023-08-20T02:08:53;19.58;;;8.32;;
68886;SDS011;55925;51.764;6.402;2023-08-20T02:11:19;15.00;;;8.57;;
68886;SDS011;55925;51.764;6.402;2023-08-20T02:13:45;15.88;;;8.20;;
68886;SDS011;55925;51.764;6.402;2023-08-20T02:16:11;16.95;;;8.38;;
68886;SDS011;55925;51.764;6.402;2023-08-20T02:18:37;17.10;;;8.50;;
68886;SDS011;55925;51.764;6.402;2023-08-20T02:21:03;18.38;;;8.15;;
68886;SDS011;55925;51.764;6.402;2023-08-20T02:23:29;17.23;;;7.80;;
68886;SDS011;55925;51.764;6.402;2023-08-20T02:25:56;14.90;;;8.00;;
68886;SDS011;55925;51.764;6.402;2023-08-20T02:28:23;14.38;;;8.02;;
68886;SDS011;55925;51.764;6.402;2023-08-20T02:30:49;15.52;;;7.95;;
68886;SDS011;55925;51.764;6.402;2023-08-20T02:33:15;14.25;;;7.88;;
68886;SDS011;55925;51.764;6.402;2023-08-20T02:35:41;17.95;;;9.05;;
68886;SDS011;55925;51.764;6.402;2023-08-20T02:38:07;18.55;;;7.70;;
68886;SDS011;55925;51.764;6.402;2023-08-20T02:40:38;16.23;;;8.95;;
68886;SDS011;55925;51.764;6.402;2023-08-20T02:43:04;17.23;;;8.32;;
68886;SDS011;55925;51.764;6.402;2023-08-20T02:45:30;16.77;;;8.00;;
68886;SDS011;55925;51.764;6.402;2023-08-20T02:47:57;17.23;;;8.85;;
68886;SDS011;55925;51.764;6.402;2023-08-20T02:50:23;22.23;;;8.77;;
68886;SDS011;55925;51.764;6.402;2023-08-20T02:52:49;18.45;;;9.07;;
68886;SDS011;55925;51.764;6.402;2023-08-20T02:55:15;17.95;;;8.45;;
68886;SDS011;55925;51.764;6.402;2023-08-20T02:57:40;17.65;;;8.07;;
68886;SDS011;55925;51.764;6.402;2023-08-20T03:00:07;16.13;;;8.38;;
68886;SDS011;55925;51.764;6.402;2023-08-20T03:02:36;14.20;;;8.48;;
68886;SDS011;55925;51.764;6.402;2023-08-20T03:05:02;15.95;;;9.02;;
68886;SDS011;55925;51.764;6.402;2023-08-20T03:07:30;15.25;;;8.15;;
68886;SDS011;55925;51.764;6.402;2023-08-20T03:09:57;16.83;;;8.02;;
68886;SDS011;55925;51.764;6.402;2023-08-20T03:12:23;15.57;;;7.85;;
68886;SDS011;55925;51.764;6.402;2023-08-20T03:14:49;17.25;;;8.63;;
68886;SDS011;55925;51.764;6.402;2023-08-20T03:17:15;16.13;;;7.57;;
68886;SDS011;55925;51.764;6.402;2023-08-20T03:19:53;15.35;;;7.68;;
68886;SDS011;55925;51.764;6.402;2023-08-20T03:22:19;17.08;;;7.85;;
68886;SDS011;55925;51.764;6.402;2023-08-20T03:24:45;14.27;;;7.65;;
68886;SDS011;55925;51.764;6.402;2023-08-20T03:27:11;17.10;;;8.50;;
68886;SDS011;55925;51.764;6.402;2023-08-20T03:29:37;16.13;;;8.68;;
68886;SDS011;55925;51.764;6.402;2023-08-20T03:32:03;16.10;;;8.18;;
68886;SDS011;55925;51.764;6.402;2023-08-20T03:34:29;14.65;;;8.27;;
68886;SDS011;55925;51.764;6.402;2023-08-20T03:36:55;17.50;;;8.32;;
68886;SDS011;55925;51.764;6.402;2023-08-20T03:39:21;14.43;;;7.32;;
68886;SDS011;55925;51.764;6.402;2023-08-20T03:41:47;13.85;;;8.20;;
68886;SDS011;55925;51.764;6.402;2023-08-20T03:44:13;18.63;;;9.13;;
68886;SDS011;55925;51.764;6.402;2023-08-20T03:46:39;18.30;;;7.78;;
68886;SDS011;55925;51.764;6.402;2023-08-20T03:49:05;19.45;;;8.32;;
68886;SDS011;55925;51.764;6.402;2023-08-20T03:51:31;15.88;;;8.00;;
68886;SDS011;55925;51.764;6.402;2023-08-20T03:53:57;17.30;;;7.47;;
68886;SDS011;55925;51.764;6.402;2023-08-20T03:56:23;15.25;;;8.43;;
68886;SDS011;55925;51.764;6.402;2023-08-20T03:58:49;16.30;;;9.10;;
68886;SDS011;55925;51.764;6.402;2023-08-20T04:01:15;19.73;;;9.95;;
68886;SDS011;55925;51.764;6.402;2023-08-20T04:03:41;21.83;;;10.48;;
68886;SDS011;55925;51.764;6.402;2023-08-20T04:06:07;26.85;;;12.13;;
68886;SDS011;55925;51.764;6.402;2023-08-20T04:08:33;21.15;;;10.80;;
68886;SDS011;55925;51.764;6.402;2023-08-20T04:10:59;17.65;;;9.80;;
68886;SDS011;55925;51.764;6.402;2023-08-20T04:13:26;19.13;;;10.05;;
68886;SDS011;55925;51.764;6.402;2023-08-20T04:15:52;18.70;;;9.18;;
68886;SDS011;55925;51.764;6.402;2023-08-20T04:18:18;20.40;;;9.55;;
68886;SDS011;55925;51.764;6.402;2023-08-20T04:20:44;19.10;;;9.45;;
68886;SDS011;55925;51.764;6.402;2023-08-20T04:23:10;20.23;;;9.27;;
68886;SDS011;55925;51.764;6.402;2023-08-20T04:25:36;16.05;;;8.75;;
68886;SDS011;55925;51.764;6.402;2023-08-20T04:28:02;17.10;;;8.35;;
68886;SDS011;55925;51.764;6.402;2023-08-20T04:30:28;17.77;;;8.43;;
68886;SDS011;55925;51.764;6.402;2023-08-20T04:32:54;16.13;;;8.02;;
68886;SDS011;55925;51.764;6.402;2023-08-20T04:35:20;18.20;;;8.02;;
68886;SDS011;55925;51.764;6.402;2023-08-20T04:37:46;15.88;;;8.05;;
68886;SDS011;55925;51.764;6.402;2023-08-20T04:40:12;16.85;;;7.45;;
68886;SDS011;55925;51.764;6.402;2023-08-20T04:42:38;15.68;;;7.93;;
68886;SDS011;55925;51.764;6.402;2023-08-20T04:45:04;15.48;;;8.27;;
68886;SDS011;55925;51.764;6.402;2023-08-20T04:47:31;17.80;;;8.88;;
68886;SDS011;55925;51.764;6.402;2023-08-20T04:49:57;14.10;;;7.38;;
68886;SDS011;55925;51.764;6.402;2023-08-20T04:52:23;18.13;;;8.73;;
68886;SDS011;55925;51.764;6.402;2023-08-20T04:54:49;16.92;;;8.48;;
68886;SDS011;55925;51.764;6.402;2023-08-20T04:57:15;18.15;;;9.30;;
68886;SDS011;55925;51.764;6.402;2023-08-20T04:59:41;20.77;;;9.85;;
68886;SDS011;55925;51.764;6.402;2023-08-20T05:02:13;19.70;;;9.82;;
68886;SDS011;55925;51.764;6.402;2023-08-20T05:04:39;21.58;;;10.63;;
68886;SDS011;55925;51.764;6.402;2023-08-20T05:07:05;23.75;;;10.60;;
68886;SDS011;55925;51.764;6.402;2023-08-20T05:09:32;20.92;;;11.68;;
68886;SDS011;55925;51.764;6.402;2023-08-20T05:11:59;19.02;;;9.73;;
68886;SDS011;55925;51.764;6.402;2023-08-20T05:14:25;23.33;;;11.35;;
68886;SDS011;55925;51.764;6.402;2023-08-20T05:16:51;22.65;;;10.40;;
68886;SDS011;55925;51.764;6.402;2023-08-20T05:19:17;23.80;;;11.23;;
68886;SDS011;55925;51.764;6.402;2023-08-20T05:21:43;26.70;;;11.98;;
68886;SDS011;55925;51.764;6.402;2023-08-20T05:24:09;19.05;;;9.68;;
68886;SDS011;55925;51.764;6.402;2023-08-20T05:26:35;15.60;;;9.02;;
68886;SDS011;55925;51.764;6.402;2023-08-20T05:29:01;15.02;;;8.45;;
68886;SDS011;55925;51.764;6.402;2023-08-20T05:31:27;15.93;;;8.68;;
68886;SDS011;55925;51.764;6.402;2023-08-20T05:33:53;17.85;;;8.57;;
68886;SDS011;55925;51.764;6.402;2023-08-20T05:36:19;19.02;;;9.80;;
68886;SDS011;55925;51.764;6.402;2023-08-20T05:38:45;18.65;;;8.95;;
68886;SDS011;55925;51.764;6.402;2023-08-20T05:41:11;19.42;;;9.93;;
68886;SDS011;55925;51.764;6.402;2023-08-20T05:43:37;18.83;;;9.68;;
68886;SDS011;55925;51.764;6.402;2023-08-20T05:46:03;18.90;;;9.27;;
68886;SDS011;55925;51.764;6.402;2023-08-20T05:48:29;20.88;;;9.02;;
68886;SDS011;55925;51.764;6.402;2023-08-20T05:50:55;18.10;;;9.77;;
68886;SDS011;55925;51.764;6.402;2023-08-20T05:53:22;18.83;;;9.13;;
68886;SDS011;55925;51.764;6.402;2023-08-20T05:55:48;22.60;;;9.80;;
68886;SDS011;55925;51.764;6.402;2023-08-20T05:58:14;17.20;;;8.48;;
68886;SDS011;55925;51.764;6.402;2023-08-20T06:00:40;19.42;;;9.18;;
68886;SDS011;55925;51.764;6.402;2023-08-20T06:03:06;17.80;;;8.80;;
68886;SDS011;55925;51.764;6.402;2023-08-20T06:05:33;14.18;;;8.25;;
68886;SDS011;55925;51.764;6.402;2023-08-20T06:07:59;14.90;;;7.80;;
68886;SDS011;55925;51.764;6.402;2023-08-20T06:10:25;15.05;;;7.13;;
68886;SDS011;55925;51.764;6.402;2023-08-20T06:12:51;16.23;;;7.95;;
68886;SDS011;55925;51.764;6.402;2023-08-20T06:15:18;16.30;;;8.38;;
68886;SDS011;55925;51.764;6.402;2023-08-20T06:17:44;18.98;;;8.07;;
68886;SDS011;55925;51.764;6.402;2023-08-20T06:20:10;15.02;;;7.63;;
68886;SDS011;55925;51.764;6.402;2023-08-20T06:22:37;14.00;;;7.65;;
68886;SDS011;55925;51.764;6.402;2023-08-20T06:25:03;17.40;;;7.70;;
68886;SDS011;55925;51.764;6.402;2023-08-20T06:27:29;17.83;;;7.65;;
68886;SDS011;55925;51.764;6.402;2023-08-20T06:29:55;14.70;;;7.45;;
68886;SDS011;55925;51.764;6.402;2023-08-20T06:32:23;13.73;;;6.75;;
68886;SDS011;55925;51.764;6.402;2023-08-20T06:34:49;16.70;;;8.50;;
68886;SDS011;55925;51.764;6.402;2023-08-20T06:37:15;14.02;;;7.30;;
68886;SDS011;55925;51.764;6.402;2023-08-20T06:39:41;20.30;;;10.10;;
68886;SDS011;55925;51.764;6.402;2023-08-20T06:42:07;18.35;;;9.13;;
68886;SDS011;55925;51.764;6.402;2023-08-20T06:44:33;20.80;;;9.32;;
68886;SDS011;55925;51.764;6.402;2023-08-20T06:47:00;19.35;;;9.23;;
68886;SDS011;55925;51.764;6.402;2023-08-20T06:49:26;19.15;;;9.90;;
68886;SDS011;55925;51.764;6.402;2023-08-20T06:51:52;25.45;;;11.73;;
68886;SDS011;55925;51.764;6.402;2023-08-20T06:54:18;27.70;;;13.23;;
68886;SDS011;55925;51.764;6.402;2023-08-20T06:56:44;26.55;;;13.38;;
68886;SDS011;55925;51.764;6.402;2023-08-20T06:59:10;23.90;;;12.20;;
68886;SDS011;55925;51.764;6.402;2023-08-20T07:01:36;25.98;;;12.18;;
68886;SDS011;55925;51.764;6.402;2023-08-20T07:04:02;20.00;;;11.18;;
68886;SDS011;55925;51.764;6.402;2023-08-20T07:06:29;24.08;;;12.70;;
68886;SDS011;55925;51.764;6.402;2023-08-20T07:08:55;24.83;;;12.10;;
68886;SDS011;55925;51.764;6.402;2023-08-20T07:11:21;24.50;;;13.05;;
68886;SDS011;55925;51.764;6.402;2023-08-20T07:13:47;28.50;;;13.07;;
68886;SDS011;55925;51.764;6.402;2023-08-20T07:16:13;26.35;;;12.45;;
68886;SDS011;55925;51.764;6.402;2023-08-20T07:18:39;25.45;;;12.32;;
68886;SDS011;55925;51.764;6.402;2023-08-20T07:21:05;28.50;;;15.05;;
68886;SDS011;55925;51.764;6.402;2023-08-20T07:23:32;25.77;;;14.07;;
68886;SDS011;55925;51.764;6.402;2023-08-20T07:26:09;28.50;;;15.27;;
68886;SDS011;55925;51.764;6.402;2023-08-20T07:28:36;34.72;;;17.02;;
68886;SDS011;55925;51.764;6.402;2023-08-20T07:31:21;28.48;;;14.80;;
68886;SDS011;55925;51.764;6.402;2023-08-20T07:33:48;25.52;;;14.18;;
68886;SDS011;55925;51.764;6.402;2023-08-20T07:36:14;23.02;;;13.52;;
68886;SDS011;55925;51.764;6.402;2023-08-20T07:38:40;27.92;;;14.95;;
68886;SDS011;55925;51.764;6.402;2023-08-20T07:41:07;24.65;;;14.07;;
68886;SDS011;55925;51.764;6.402;2023-08-20T07:43:33;32.15;;;15.70;;
68886;SDS011;55925;51.764;6.402;2023-08-20T07:45:59;25.63;;;14.75;;
68886;SDS011;55925;51.764;6.402;2023-08-20T07:48:25;22.05;;;11.48;;
68886;SDS011;55925;51.764;6.402;2023-08-20T07:50:51;23.20;;;11.35;;
68886;SDS011;55925;51.764;6.402;2023-08-20T07:53:17;21.50;;;10.82;;
68886;SDS011;55925;51.764;6.402;2023-08-20T07:55:44;20.90;;;12.10;;
68886;SDS011;55925;51.764;6.402;2023-08-20T07:58:10;26.48;;;12.60;;
68886;SDS011;55925;51.764;6.402;2023-08-20T08:00:36;19.98;;;9.40;;
68886;SDS011;55925;51.764;6.402;2023-08-20T08:03:02;19.02;;;9.57;;
68886;SDS011;55925;51.764;6.402;2023-08-20T08:05:28;19.23;;;8.98;;
68886;SDS011;55925;51.764;6.402;2023-08-20T08:07:54;18.88;;;9.25;;
68886;SDS011;55925;51.764;6.402;2023-08-20T08:10:20;14.82;;;7.63;;
68886;SDS011;55925;51.764;6.402;2023-08-20T08:12:46;13.02;;;7.40;;
68886;SDS011;55925;51.764;6.402;2023-08-20T08:15:12;14.07;;;6.97;;
68886;SDS011;55925;51.764;6.402;2023-08-20T08:17:38;11.32;;;6.20;;
68886;SDS011;55925;51.764;6.402;2023-08-20T08:20:04;14.15;;;5.95;;
68886;SDS011;55925;51.764;6.402;2023-08-20T08:22:31;12.00;;;5.13;;
68886;SDS011;55925;51.764;6.402;2023-08-20T08:24:57;10.10;;;3.97;;
68886;SDS011;55925;51.764;6.402;2023-08-20T08:27:23;8.80;;;4.45;;
68886;SDS011;55925;51.764;6.402;2023-08-20T08:29:50;9.57;;;4.15;;
68886;SDS011;55925;51.764;6.402;2023-08-20T08:32:16;10.05;;;4.20;;
68886;SDS011;55925;51.764;6.402;2023-08-20T08:34:42;8.68;;;3.58;;
68886;SDS011;55925;51.764;6.402;2023-08-20T08:37:08;6.70;;;3.30;;
68886;SDS011;55925;51.764;6.402;2023-08-20T08:39:34;8.32;;;3.55;;
68886;SDS011;55925;51.764;6.402;2023-08-20T08:42:04;8.75;;;3.45;;
68886;SDS011;55925;51.764;6.402;2023-08-20T08:44:32;6.93;;;3.00;;
68886;SDS011;55925;51.764;6.402;2023-08-20T08:46:58;8.77;;;3.80;;
68886;SDS011;55925;51.764;6.402;2023-08-20T08:49:25;8.93;;;3.67;;
68886;SDS011;55925;51.764;6.402;2023-08-20T08:51:51;9.55;;;4.00;;
68886;SDS011;55925;51.764;6.402;2023-08-20T08:54:19;9.27;;;3.67;;
68886;SDS011;55925;51.764;6.402;2023-08-20T08:56:45;8.85;;;3.72;;
68886;SDS011;55925;51.764;6.402;2023-08-20T08:59:11;9.00;;;4.03;;
68886;SDS011;55925;51.764;6.402;2023-08-20T09:01:40;12.45;;;4.00;;
68886;SDS011;55925;51.764;6.402;2023-08-20T09:04:07;8.77;;;3.70;;
68886;SDS011;55925;51.764;6.402;2023-08-20T09:06:46;10.88;;;4.88;;
68886;SDS011;55925;51.764;6.402;2023-08-20T09:09:13;12.23;;;5.10;;
68886;SDS011;55925;51.764;6.402;2023-08-20T09:11:39;8.60;;;3.97;;
68886;SDS011;55925;51.764;6.402;2023-08-20T09:14:05;11.57;;;4.30;;
68886;SDS011;55925;51.764;6.402;2023-08-20T09:16:31;10.95;;;4.75;;
68886;SDS011;55925;51.764;6.402;2023-08-20T09:19:00;10.10;;;4.85;;
68886;SDS011;55925;51.764;6.402;2023-08-20T09:21:27;11.95;;;5.00;;
68886;SDS011;55925;51.764;6.402;2023-08-20T09:23:56;8.95;;;4.22;;
68886;SDS011;55925;51.764;6.402;2023-08-20T09:26:23;8.57;;;4.15;;
68886;SDS011;55925;51.764;6.402;2023-08-20T09:28:49;10.70;;;4.60;;
68886;SDS011;55925;51.764;6.402;2023-08-20T09:31:15;8.02;;;3.47;;
68886;SDS011;55925;51.764;6.402;2023-08-20T09:33:51;8.82;;;4.35;;
68886;SDS011;55925;51.764;6.402;2023-08-20T09:36:17;8.48;;;3.70;;
68886;SDS011;55925;51.764;6.402;2023-08-20T09:38:43;10.40;;;3.67;;
68886;SDS011;55925;51.764;6.402;2023-08-20T09:41:09;9.95;;;4.05;;
68886;SDS011;55925;51.764;6.402;2023-08-20T09:43:40;8.95;;;3.42;;
68886;SDS011;55925;51.764;6.402;2023-08-20T09:46:07;6.72;;;3.35;;
68886;SDS011;55925;51.764;6.402;2023-08-20T09:48:36;9.88;;;3.65;;
68886;SDS011;55925;51.764;6.402;2023-08-20T09:51:04;7.95;;;3.25;;
68886;SDS011;55925;51.764;6.402;2023-08-20T09:55:59;9.57;;;3.25;;
68886;SDS011;55925;51.764;6.402;2023-08-20T10:00:55;7.72;;;2.78;;
68886;SDS011;55925;51.764;6.402;2023-08-20T10:03:21;7.20;;;2.88;;
68886;SDS011;55925;51.764;6.402;2023-08-20T10:05:48;6.63;;;3.10;;
68886;SDS011;55925;51.764;6.402;2023-08-20T10:08:14;6.65;;;2.50;;
68886;SDS011;55925;51.764;6.402;2023-08-20T10:10:40;6.88;;;2.13;;
68886;SDS011;55925;51.764;6.402;2023-08-20T10:13:07;7.32;;;2.55;;
68886;SDS011;55925;51.764;6.402;2023-08-20T10:15:33;6.93;;;2.30;;
68886;SDS011;55925;51.764;6.402;2023-08-20T10:18:01;6.75;;;2.25;;
68886;SDS011;55925;51.764;6.402;2023-08-20T10:20:31;7.22;;;2.40;;
68886;SDS011;55925;51.764;6.402;2023-08-20T10:23:00;6.78;;;2.13;;
68886;SDS011;55925;51.764;6.402;2023-08-20T10:25:26;6.88;;;2.53;;
68886;SDS011;55925;51.764;6.402;2023-08-20T10:27:53;6.38;;;2.30;;
68886;SDS011;55925;51.764;6.402;2023-08-20T10:30:20;6.35;;;2.50;;
68886;SDS011;55925;51.764;6.402;2023-08-20T10:36:01;8.45;;;2.20;;
68886;SDS011;55925;51.764;6.402;2023-08-20T10:38:06;6.53;;;1.90;;
68886;SDS011;55925;51.764;6.402;2023-08-20T10:40:48;7.38;;;2.30;;
68886;SDS011;55925;51.764;6.402;2023-08-20T10:43:28;6.97;;;2.45;;
68886;SDS011;55925;51.764;6.402;2023-08-20T10:46:06;7.05;;;2.20;;
68886;SDS011;55925;51.764;6.402;2023-08-20T10:48:33;5.97;;;2.05;;
68886;SDS011;55925;51.764;6.402;2023-08-20T10:51:33;7.53;;;2.40;;
68886;SDS011;55925;51.764;6.402;2023-08-20T10:59:28;8.13;;;2.10;;
68886;SDS011;55925;51.764;6.402;2023-08-20T11:01:52;5.07;;;1.67;;
68886;SDS011;55925;51.764;6.402;2023-08-20T11:04:20;5.57;;;1.80;;
68886;SDS011;55925;51.764;6.402;2023-08-20T11:06:49;6.07;;;1.90;;
68886;SDS011;55925;51.764;6.402;2023-08-20T11:09:15;3.92;;;1.30;;
68886;SDS011;55925;51.764;6.402;2023-08-20T11:11:42;6.30;;;1.90;;
68886;SDS011;55925;51.764;6.402;2023-08-20T11:14:12;6.55;;;1.40;;
68886;SDS011;55925;51.764;6.402;2023-08-20T11:16:42;3.75;;;1.13;;
68886;SDS011;55925;51.764;6.402;2023-08-20T11:19:09;4.78;;;1.20;;
68886;SDS011;55925;51.764;6.402;2023-08-20T11:21:36;7.13;;;1.38;;
68886;SDS011;55925;51.764;6.402;2023-08-20T11:24:03;4.35;;;1.30;;
68886;SDS011;55925;51.764;6.402;2023-08-20T11:26:29;5.72;;;1.30;;
68886;SDS011;55925;51.764;6.402;2023-08-20T11:28:55;3.85;;;1.30;;
68886;SDS011;55925;51.764;6.402;2023-08-20T11:31:21;6.82;;;1.83;;
68886;SDS011;55925;51.764;6.402;2023-08-20T11:33:49;6.28;;;1.70;;
68886;SDS011;55925;51.764;6.402;2023-08-20T11:36:15;5.78;;;1.42;;
68886;SDS011;55925;51.764;6.402;2023-08-20T11:38:54;6.80;;;1.35;;
68886;SDS011;55925;51.764;6.402;2023-08-20T11:41:21;5.95;;;1.65;;
68886;SDS011;55925;51.764;6.402;2023-08-20T11:43:47;4.07;;;1.27;;
68886;SDS011;55925;51.764;6.402;2023-08-20T11:46:14;4.28;;;1.40;;
68886;SDS011;55925;51.764;6.402;2023-08-20T11:51:43;5.68;;;1.20;;
68886;SDS011;55925;51.764;6.402;2023-08-20T11:54:14;6.22;;;1.73;;
68886;SDS011;55925;51.764;6.402;2023-08-20T11:56:44;4.15;;;1.17;;
68886;SDS011;55925;51.764;6.402;2023-08-20T11:59:11;4.75;;;1.02;;
68886;SDS011;55925;51.764;6.402;2023-08-20T12:01:38;4.70;;;1.15;;
68886;SDS011;55925;51.764;6.402;2023-08-20T12:04:04;3.05;;;0.98;;
68886;SDS011;55925;51.764;6.402;2023-08-20T12:06:30;4.88;;;1.20;;
68886;SDS011;55925;51.764;6.402;2023-08-20T12:08:57;5.50;;;1.20;;
68886;SDS011;55925;51.764;6.402;2023-08-20T12:11:26;4.80;;;1.23;;
68886;SDS011;55925;51.764;6.402;2023-08-20T12:13:52;3.78;;;1.20;;
68886;SDS011;55925;51.764;6.402;2023-08-20T12:16:18;3.85;;;1.17;;
68886;SDS011;55925;51.764;6.402;2023-08-20T12:18:47;3.90;;;1.10;;
68886;SDS011;55925;51.764;6.402;2023-08-20T12:21:13;4.60;;;1.10;;
68886;SDS011;55925;51.764;6.402;2023-08-20T12:23:39;3.50;;;1.00;;
68886;SDS011;55925;51.764;6.402;2023-08-20T12:26:05;5.35;;;1.10;;
68886;SDS011;55925;51.764;6.402;2023-08-20T12:28:32;4.88;;;1.00;;
68886;SDS011;55925;51.764;6.402;2023-08-20T12:30:58;3.75;;;1.13;;
68886;SDS011;55925;51.764;6.402;2023-08-20T12:33:24;4.15;;;1.15;;
68886;SDS011;55925;51.764;6.402;2023-08-20T12:35:53;4.55;;;1.20;;
68886;SDS011;55925;51.764;6.402;2023-08-20T12:38:19;3.80;;;1.20;;
68886;SDS011;55925;51.764;6.402;2023-08-20T12:40:45;3.17;;;0.85;;
68886;SDS011;55925;51.764;6.402;2023-08-20T12:43:11;3.90;;;1.00;;
68886;SDS011;55925;51.764;6.402;2023-08-20T12:45:37;4.80;;;1.17;;
68886;SDS011;55925;51.764;6.402;2023-08-20T12:48:04;4.53;;;1.02;;
68886;SDS011;55925;51.764;6.402;2023-08-20T12:50:30;4.78;;;1.15;;
68886;SDS011;55925;51.764;6.402;2023-08-20T12:52:56;3.22;;;0.95;;
68886;SDS011;55925;51.764;6.402;2023-08-20T12:55:22;4.28;;;1.42;;
68886;SDS011;55925;51.764;6.402;2023-08-20T12:57:52;4.68;;;1.02;;
68886;SDS011;55925;51.764;6.402;2023-08-20T13:00:19;4.25;;;1.10;;
68886;SDS011;55925;51.764;6.402;2023-08-20T13:02:45;3.85;;;1.20;;
68886;SDS011;55925;51.764;6.402;2023-08-20T13:05:12;2.85;;;0.90;;
68886;SDS011;55925;51.764;6.402;2023-08-20T13:07:38;4.53;;;0.90;;
68886;SDS011;55925;51.764;6.402;2023-08-20T13:10:04;3.20;;;1.00;;
68886;SDS011;55925;51.764;6.402;2023-08-20T13:12:31;5.78;;;1.10;;
68886;SDS011;55925;51.764;6.402;2023-08-20T13:14:57;4.00;;;1.10;;
68886;SDS011;55925;51.764;6.402;2023-08-20T13:17:24;4.10;;;0.82;;
68886;SDS011;55925;51.764;6.402;2023-08-20T13:19:50;3.75;;;0.80;;
68886;SDS011;55925;51.764;6.402;2023-08-20T13:22:16;3.28;;;1.05;;
68886;SDS011;55925;51.764;6.402;2023-08-20T13:24:42;3.53;;;0.98;;
68886;SDS011;55925;51.764;6.402;2023-08-20T13:27:08;3.80;;;1.00;;
68886;SDS011;55925;51.764;6.402;2023-08-20T13:29:34;4.55;;;1.00;;
68886;SDS011;55925;51.764;6.402;2023-08-20T13:32:00;1.83;;;0.55;;
68886;SDS011;55925;51.764;6.402;2023-08-20T13:34:27;3.13;;;0.70;;
68886;SDS011;55925;51.764;6.402;2023-08-20T13:36:53;3.13;;;0.85;;
68886;SDS011;55925;51.764;6.402;2023-08-20T13:39:19;3.90;;;0.73;;
68886;SDS011;55925;51.764;6.402;2023-08-20T13:41:46;3.75;;;0.80;;
68886;SDS011;55925;51.764;6.402;2023-08-20T13:44:12;2.65;;;0.80;;
68886;SDS011;55925;51.764;6.402;2023-08-20T13:46:38;3.95;;;1.00;;
68886;SDS011;55925;51.764;6.402;2023-08-20T13:49:04;3.65;;;0.88;;
68886;SDS011;55925;51.764;6.402;2023-08-20T13:51:30;3.67;;;0.85;;
68886;SDS011;55925;51.764;6.402;2023-08-20T13:53:56;3.55;;;0.93;;
68886;SDS011;55925;51.764;6.402;2023-08-20T13:56:23;4.30;;;1.02;;
68886;SDS011;55925;51.764;6.402;2023-08-20T13:58:50;3.53;;;0.80;;
68886;SDS011;55925;51.764;6.402;2023-08-20T14:01:16;2.75;;;0.77;;
68886;SDS011;55925;51.764;6.402;2023-08-20T14:03:42;4.60;;;0.88;;
68886;SDS011;55925;51.764;6.402;2023-08-20T14:06:08;3.50;;;0.95;;
68886;SDS011;55925;51.764;6.402;2023-08-20T14:08:34;3.58;;;0.90;;
68886;SDS011;55925;51.764;6.402;2023-08-20T14:11:00;4.30;;;0.82;;
68886;SDS011;55925;51.764;6.402;2023-08-20T14:13:26;2.20;;;0.70;;
68886;SDS011;55925;51.764;6.402;2023-08-20T14:15:53;4.25;;;0.90;;
68886;SDS011;55925;51.764;6.402;2023-08-20T14:18:19;4.57;;;0.90;;
68886;SDS011;55925;51.764;6.402;2023-08-20T14:20:45;3.83;;;0.80;;
68886;SDS011;55925;51.764;6.402;2023-08-20T14:23:11;3.70;;;1.00;;
68886;SDS011;55925;51.764;6.402;2023-08-20T14:25:37;2.65;;;0.65;;
68886;SDS011;55925;51.764;6.402;2023-08-20T14:28:05;5.47;;;1.15;;
68886;SDS011;55925;51.764;6.402;2023-08-20T14:30:31;3.75;;;0.85;;
68886;SDS011;55925;51.764;6.402;2023-08-20T14:32:57;3.90;;;0.90;;
68886;SDS011;55925;51.764;6.402;2023-08-20T14:35:23;4.25;;;1.30;;
68886;SDS011;55925;51.764;6.402;2023-08-20T14:37:51;3.35;;;0.88;;
68886;SDS011;55925;51.764;6.402;2023-08-20T14:40:17;4.45;;;1.23;;
68886;SDS011;55925;51.764;6.402;2023-08-20T14:42:43;3.63;;;0.90;;
68886;SDS011;55925;51.764;6.402;2023-08-20T14:45:09;4.47;;;0.98;;
68886;SDS011;55925;51.764;6.402;2023-08-20T14:47:35;4.70;;;1.10;;
68886;SDS011;55925;51.764;6.402;2023-08-20T14:50:01;3.50;;;0.90;;
68886;SDS011;55925;51.764;6.402;2023-08-20T14:52:27;3.97;;;0.90;;
68886;SDS011;55925;51.764;6.402;2023-08-20T14:54:53;4.47;;;1.13;;
68886;SDS011;55925;51.764;6.402;2023-08-20T14:57:19;4.55;;;1.00;;
68886;SDS011;55925;51.764;6.402;2023-08-20T14:59:45;2.75;;;0.98;;
68886;SDS011;55925;51.764;6.402;2023-08-20T15:02:11;3.47;;;0.93;;
68886;SDS011;55925;51.764;6.402;2023-08-20T15:04:38;4.72;;;1.00;;